sensor_id;sensor_type;location;lat;lon;timestamp;P1;durP1;ratioP1;P2;durP2;ratioP2
27802;SDS011;15182;48.174;11.562;2022-09-29T00:00:46;2.53;;;2.53;;
27802;SDS011;15182;48.174;11.562;2022-09-29T00:03:19;2.87;;;2.67;;
27802;SDS011;15182;48.174;11.562;2022-09-29T00:05:53;2.80;;;2.60;;
27802;SDS011;15182;48.174;11.562;2022-09-29T00:08:27;2.53;;;2.33;;
27802;SDS011;15182;48.174;11.562;2022-09-29T00:10:59;2.50;;;2.50;;
27802;SDS011;15182;48.174;11.562;2022-09-29T00:13:37;2.73;;;2.73;;
27802;SDS011;15182;48.174;11.562;2022-09-29T00:16:09;2.40;;;2.40;;
27802;SDS011;15182;48.174;11.562;2022-09-29T00:18:41;2.47;;;2.37;;
27802;SDS011;15182;48.174;11.562;2022-09-29T00:21:14;2.37;;;2.37;;
27802;SDS011;15182;48.174;11.562;2022-09-29T00:23:46;2.80;;;2.77;;
27802;SDS011;15182;48.174;11.562;2022-09-29T00:26:19;2.80;;;2.70;;
27802;SDS011;15182;48.174;11.562;2022-09-29T00:28:52;2.97;;;2.97;;
27802;SDS011;15182;48.174;11.562;2022-09-29T00:31:26;3.33;;;3.10;;
27802;SDS011;15182;48.174;11.562;2022-09-29T00:33:58;3.50;;;3.20;;
27802;SDS011;15182;48.174;11.562;2022-09-29T00:36:31;2.90;;;2.80;;
27802;SDS011;15182;48.174;11.562;2022-09-29T00:39:03;3.83;;;2.83;;
27802;SDS011;15182;48.174;11.562;2022-09-29T00:41:34;2.90;;;2.90;;
27802;SDS011;15182;48.174;11.562;2022-09-29T00:47:25;2.73;;;2.70;;
27802;SDS011;15182;48.174;11.562;2022-09-29T00:49:58;2.83;;;2.70;;
27802;SDS011;15182;48.174;11.562;2022-09-29T00:52:35;2.67;;;2.57;;
27802;SDS011;15182;48.174;11.562;2022-09-29T00:55:14;2.77;;;2.67;;
27802;SDS011;15182;48.174;11.562;2022-09-29T00:57:51;2.77;;;2.70;;
27802;SDS011;15182;48.174;11.562;2022-09-29T01:00:26;2.80;;;2.60;;
27802;SDS011;15182;48.174;11.562;2022-09-29T01:02:59;2.50;;;2.50;;
27802;SDS011;15182;48.174;11.562;2022-09-29T01:05:36;3.40;;;2.57;;
27802;SDS011;15182;48.174;11.562;2022-09-29T01:08:15;2.50;;;2.40;;
27802;SDS011;15182;48.174;11.562;2022-09-29T01:10:51;2.63;;;2.63;;
27802;SDS011;15182;48.174;11.562;2022-09-29T01:13:25;3.37;;;2.50;;
27802;SDS011;15182;48.174;11.562;2022-09-29T01:15:58;2.50;;;2.50;;
27802;SDS011;15182;48.174;11.562;2022-09-29T01:18:30;2.40;;;2.40;;
27802;SDS011;15182;48.174;11.562;2022-09-29T01:21:06;2.47;;;2.37;;
27802;SDS011;15182;48.174;11.562;2022-09-29T01:30:14;2.33;;;2.33;;
27802;SDS011;15182;48.174;11.562;2022-09-29T01:35:59;2.60;;;2.50;;
27802;SDS011;15182;48.174;11.562;2022-09-29T01:38:42;2.70;;;2.60;;
27802;SDS011;15182;48.174;11.562;2022-09-29T01:41:25;2.57;;;2.57;;
27802;SDS011;15182;48.174;11.562;2022-09-29T01:44:03;2.70;;;2.70;;
27802;SDS011;15182;48.174;11.562;2022-09-29T01:46:41;2.20;;;2.20;;
27802;SDS011;15182;48.174;11.562;2022-09-29T01:49:18;2.30;;;2.30;;
27802;SDS011;15182;48.174;11.562;2022-09-29T01:51:58;2.70;;;2.60;;
27802;SDS011;15182;48.174;11.562;2022-09-29T01:54:38;2.60;;;2.60;;
27802;SDS011;15182;48.174;11.562;2022-09-29T01:57:14;2.67;;;2.67;;
27802;SDS011;15182;48.174;11.562;2022-09-29T01:59:53;2.53;;;2.53;;
27802;SDS011;15182;48.174;11.562;2022-09-29T02:02:39;2.37;;;2.20;;
27802;SDS011;15182;48.174;11.562;2022-09-29T02:05:18;2.60;;;2.50;;
27802;SDS011;15182;48.174;11.562;2022-09-29T02:07:55;2.93;;;2.83;;
27802;SDS011;15182;48.174;11.562;2022-09-29T02:10:33;2.60;;;2.40;;
27802;SDS011;15182;48.174;11.562;2022-09-29T02:13:11;3.00;;;3.00;;
27802;SDS011;15182;48.174;11.562;2022-09-29T02:15:47;2.37;;;2.37;;
27802;SDS011;15182;48.174;11.562;2022-09-29T02:18:25;3.23;;;2.90;;
27802;SDS011;15182;48.174;11.562;2022-09-29T02:21:03;3.17;;;3.07;;
27802;SDS011;15182;48.174;11.562;2022-09-29T02:23:35;3.00;;;2.90;;
27802;SDS011;15182;48.174;11.562;2022-09-29T02:26:06;2.90;;;2.80;;
27802;SDS011;15182;48.174;11.562;2022-09-29T02:28:40;2.80;;;2.70;;
27802;SDS011;15182;48.174;11.562;2022-09-29T02:31:12;2.83;;;2.80;;
27802;SDS011;15182;48.174;11.562;2022-09-29T02:33:44;2.70;;;2.70;;
27802;SDS011;15182;48.174;11.562;2022-09-29T02:36:20;3.80;;;2.43;;
27802;SDS011;15182;48.174;11.562;2022-09-29T02:39:07;2.87;;;2.77;;
27802;SDS011;15182;48.174;11.562;2022-09-29T02:41:47;2.80;;;2.60;;
27802;SDS011;15182;48.174;11.562;2022-09-29T02:44:34;2.60;;;2.40;;
27802;SDS011;15182;48.174;11.562;2022-09-29T02:47:17;2.67;;;2.67;;
27802;SDS011;15182;48.174;11.562;2022-09-29T02:50:05;2.77;;;2.77;;
27802;SDS011;15182;48.174;11.562;2022-09-29T02:52:53;3.07;;;3.07;;
27802;SDS011;15182;48.174;11.562;2022-09-29T02:55:35;3.00;;;2.83;;
27802;SDS011;15182;48.174;11.562;2022-09-29T02:58:14;2.53;;;2.53;;
27802;SDS011;15182;48.174;11.562;2022-09-29T03:00:51;2.90;;;2.80;;
27802;SDS011;15182;48.174;11.562;2022-09-29T03:03:24;2.87;;;2.67;;
27802;SDS011;15182;48.174;11.562;2022-09-29T03:05:55;2.40;;;2.40;;
27802;SDS011;15182;48.174;11.562;2022-09-29T03:08:28;2.20;;;2.20;;
27802;SDS011;15182;48.174;11.562;2022-09-29T03:10:59;2.50;;;2.50;;
27802;SDS011;15182;48.174;11.562;2022-09-29T03:13:31;2.40;;;2.40;;
27802;SDS011;15182;48.174;11.562;2022-09-29T03:16:02;2.30;;;2.30;;
27802;SDS011;15182;48.174;11.562;2022-09-29T03:18:33;2.40;;;2.40;;
27802;SDS011;15182;48.174;11.562;2022-09-29T03:21:04;2.13;;;2.03;;
27802;SDS011;15182;48.174;11.562;2022-09-29T03:23:38;2.70;;;2.60;;
27802;SDS011;15182;48.174;11.562;2022-09-29T03:26:09;2.27;;;2.27;;
27802;SDS011;15182;48.174;11.562;2022-09-29T03:28:40;2.53;;;2.43;;
27802;SDS011;15182;48.174;11.562;2022-09-29T03:31:12;2.13;;;2.13;;
27802;SDS011;15182;48.174;11.562;2022-09-29T03:33:43;2.20;;;2.20;;
27802;SDS011;15182;48.174;11.562;2022-09-29T03:36:14;2.50;;;2.40;;
27802;SDS011;15182;48.174;11.562;2022-09-29T03:38:47;6.03;;;2.37;;
27802;SDS011;15182;48.174;11.562;2022-09-29T03:41:18;2.00;;;2.00;;
27802;SDS011;15182;48.174;11.562;2022-09-29T03:43:49;2.30;;;2.30;;
27802;SDS011;15182;48.174;11.562;2022-09-29T03:46:22;2.70;;;2.60;;
27802;SDS011;15182;48.174;11.562;2022-09-29T03:48:54;2.40;;;2.40;;
27802;SDS011;15182;48.174;11.562;2022-09-29T03:51:25;2.50;;;2.50;;
27802;SDS011;15182;48.174;11.562;2022-09-29T03:53:58;2.33;;;2.17;;
27802;SDS011;15182;48.174;11.562;2022-09-29T03:56:29;2.30;;;2.30;;
27802;SDS011;15182;48.174;11.562;2022-09-29T03:59:01;2.23;;;2.23;;
27802;SDS011;15182;48.174;11.562;2022-09-29T04:01:37;2.03;;;2.03;;
27802;SDS011;15182;48.174;11.562;2022-09-29T04:04:08;2.43;;;2.23;;
27802;SDS011;15182;48.174;11.562;2022-09-29T04:06:40;2.37;;;2.17;;
27802;SDS011;15182;48.174;11.562;2022-09-29T04:09:12;2.30;;;2.30;;
27802;SDS011;15182;48.174;11.562;2022-09-29T04:11:44;2.33;;;2.33;;
27802;SDS011;15182;48.174;11.562;2022-09-29T04:14:15;2.20;;;2.10;;
27802;SDS011;15182;48.174;11.562;2022-09-29T04:16:46;2.13;;;2.13;;
27802;SDS011;15182;48.174;11.562;2022-09-29T04:19:17;2.43;;;2.43;;
27802;SDS011;15182;48.174;11.562;2022-09-29T04:21:49;2.10;;;2.10;;
27802;SDS011;15182;48.174;11.562;2022-09-29T04:24:22;2.43;;;2.33;;
27802;SDS011;15182;48.174;11.562;2022-09-29T04:26:54;2.30;;;2.30;;
27802;SDS011;15182;48.174;11.562;2022-09-29T04:29:25;2.77;;;2.77;;
27802;SDS011;15182;48.174;11.562;2022-09-29T04:31:56;2.20;;;2.20;;
27802;SDS011;15182;48.174;11.562;2022-09-29T04:34:27;2.47;;;2.47;;
27802;SDS011;15182;48.174;11.562;2022-09-29T04:36:59;2.57;;;2.40;;
27802;SDS011;15182;48.174;11.562;2022-09-29T04:39:32;2.47;;;2.47;;
27802;SDS011;15182;48.174;11.562;2022-09-29T04:42:03;2.60;;;2.53;;
27802;SDS011;15182;48.174;11.562;2022-09-29T04:44:35;2.50;;;2.50;;
27802;SDS011;15182;48.174;11.562;2022-09-29T04:47:06;2.33;;;2.33;;
27802;SDS011;15182;48.174;11.562;2022-09-29T04:49:37;2.57;;;2.57;;
27802;SDS011;15182;48.174;11.562;2022-09-29T04:52:10;2.33;;;2.23;;
27802;SDS011;15182;48.174;11.562;2022-09-29T04:54:42;2.50;;;2.50;;
27802;SDS011;15182;48.174;11.562;2022-09-29T04:57:13;2.30;;;2.27;;
27802;SDS011;15182;48.174;11.562;2022-09-29T04:59:45;2.70;;;2.50;;
27802;SDS011;15182;48.174;11.562;2022-09-29T05:02:17;2.73;;;2.60;;
27802;SDS011;15182;48.174;11.562;2022-09-29T05:04:48;2.93;;;2.77;;
27802;SDS011;15182;48.174;11.562;2022-09-29T05:07:19;2.40;;;2.40;;
27802;SDS011;15182;48.174;11.562;2022-09-29T05:09:52;2.47;;;2.47;;
27802;SDS011;15182;48.174;11.562;2022-09-29T05:12:23;2.60;;;2.40;;
27802;SDS011;15182;48.174;11.562;2022-09-29T05:14:54;2.77;;;2.73;;
27802;SDS011;15182;48.174;11.562;2022-09-29T05:17:26;2.93;;;2.73;;
27802;SDS011;15182;48.174;11.562;2022-09-29T05:19:57;3.83;;;3.00;;
27802;SDS011;15182;48.174;11.562;2022-09-29T05:22:28;3.00;;;3.00;;
27802;SDS011;15182;48.174;11.562;2022-09-29T05:25:02;2.87;;;2.77;;
27802;SDS011;15182;48.174;11.562;2022-09-29T05:27:36;2.90;;;2.70;;
27802;SDS011;15182;48.174;11.562;2022-09-29T05:30:08;2.43;;;2.43;;
27802;SDS011;15182;48.174;11.562;2022-09-29T05:32:41;3.00;;;3.00;;
27802;SDS011;15182;48.174;11.562;2022-09-29T05:35:13;2.97;;;2.83;;
27802;SDS011;15182;48.174;11.562;2022-09-29T05:37:44;2.80;;;2.80;;
27802;SDS011;15182;48.174;11.562;2022-09-29T05:40:17;2.70;;;2.70;;
27802;SDS011;15182;48.174;11.562;2022-09-29T05:42:49;2.73;;;2.67;;
27802;SDS011;15182;48.174;11.562;2022-09-29T05:45:21;2.80;;;2.80;;
27802;SDS011;15182;48.174;11.562;2022-09-29T05:47:52;3.13;;;3.00;;
27802;SDS011;15182;48.174;11.562;2022-09-29T05:50:23;2.90;;;2.90;;
27802;SDS011;15182;48.174;11.562;2022-09-29T05:53:00;3.00;;;3.00;;
27802;SDS011;15182;48.174;11.562;2022-09-29T05:55:33;3.50;;;3.30;;
27802;SDS011;15182;48.174;11.562;2022-09-29T05:58:05;2.80;;;2.70;;
27802;SDS011;15182;48.174;11.562;2022-09-29T06:00:37;2.80;;;2.70;;
27802;SDS011;15182;48.174;11.562;2022-09-29T06:03:08;2.83;;;2.63;;
27802;SDS011;15182;48.174;11.562;2022-09-29T06:05:39;2.90;;;2.90;;
27802;SDS011;15182;48.174;11.562;2022-09-29T06:08:10;2.63;;;2.63;;
27802;SDS011;15182;48.174;11.562;2022-09-29T06:10:43;3.10;;;2.90;;
27802;SDS011;15182;48.174;11.562;2022-09-29T06:13:16;2.70;;;2.70;;
27802;SDS011;15182;48.174;11.562;2022-09-29T06:15:47;2.87;;;2.87;;
27802;SDS011;15182;48.174;11.562;2022-09-29T06:18:20;2.60;;;2.50;;
27802;SDS011;15182;48.174;11.562;2022-09-29T06:20:51;2.80;;;2.70;;
27802;SDS011;15182;48.174;11.562;2022-09-29T06:23:28;2.60;;;2.43;;
27802;SDS011;15182;48.174;11.562;2022-09-29T06:26:02;2.73;;;2.70;;
27802;SDS011;15182;48.174;11.562;2022-09-29T06:28:35;3.13;;;3.03;;
27802;SDS011;15182;48.174;11.562;2022-09-29T06:31:07;2.80;;;2.80;;
27802;SDS011;15182;48.174;11.562;2022-09-29T06:33:42;2.67;;;2.67;;
27802;SDS011;15182;48.174;11.562;2022-09-29T06:36:15;3.37;;;3.20;;
27802;SDS011;15182;48.174;11.562;2022-09-29T06:39:08;2.53;;;2.50;;
27802;SDS011;15182;48.174;11.562;2022-09-29T06:41:42;3.00;;;2.90;;
27802;SDS011;15182;48.174;11.562;2022-09-29T06:44:18;2.80;;;2.80;;
27802;SDS011;15182;48.174;11.562;2022-09-29T06:46:52;4.20;;;3.23;;
27802;SDS011;15182;48.174;11.562;2022-09-29T06:49:27;3.70;;;3.40;;
27802;SDS011;15182;48.174;11.562;2022-09-29T06:51:58;2.97;;;2.87;;
27802;SDS011;15182;48.174;11.562;2022-09-29T06:54:31;3.23;;;3.13;;
27802;SDS011;15182;48.174;11.562;2022-09-29T06:57:04;2.90;;;2.90;;
27802;SDS011;15182;48.174;11.562;2022-09-29T06:59:37;2.80;;;2.80;;
27802;SDS011;15182;48.174;11.562;2022-09-29T07:02:08;3.27;;;3.17;;
27802;SDS011;15182;48.174;11.562;2022-09-29T07:04:41;3.80;;;3.50;;
27802;SDS011;15182;48.174;11.562;2022-09-29T07:07:13;3.50;;;3.40;;
27802;SDS011;15182;48.174;11.562;2022-09-29T07:09:45;3.30;;;3.20;;
27802;SDS011;15182;48.174;11.562;2022-09-29T07:12:17;3.50;;;3.30;;
27802;SDS011;15182;48.174;11.562;2022-09-29T07:14:49;3.03;;;3.00;;
27802;SDS011;15182;48.174;11.562;2022-09-29T07:17:20;2.90;;;2.80;;
27802;SDS011;15182;48.174;11.562;2022-09-29T07:19:51;3.20;;;3.20;;
27802;SDS011;15182;48.174;11.562;2022-09-29T07:22:23;3.37;;;3.20;;
27802;SDS011;15182;48.174;11.562;2022-09-29T07:24:55;3.37;;;3.27;;
27802;SDS011;15182;48.174;11.562;2022-09-29T07:27:28;2.97;;;2.87;;
27802;SDS011;15182;48.174;11.562;2022-09-29T07:30:00;3.10;;;2.97;;
27802;SDS011;15182;48.174;11.562;2022-09-29T07:32:34;3.37;;;3.27;;
27802;SDS011;15182;48.174;11.562;2022-09-29T07:35:06;5.47;;;3.00;;
27802;SDS011;15182;48.174;11.562;2022-09-29T07:37:40;3.13;;;3.03;;
27802;SDS011;15182;48.174;11.562;2022-09-29T07:40:17;2.73;;;2.73;;
27802;SDS011;15182;48.174;11.562;2022-09-29T07:42:50;2.53;;;2.53;;
27802;SDS011;15182;48.174;11.562;2022-09-29T07:45:22;2.40;;;2.40;;
27802;SDS011;15182;48.174;11.562;2022-09-29T07:47:55;2.80;;;2.60;;
27802;SDS011;15182;48.174;11.562;2022-09-29T07:50:26;3.00;;;2.80;;
27802;SDS011;15182;48.174;11.562;2022-09-29T07:52:59;2.67;;;2.67;;
27802;SDS011;15182;48.174;11.562;2022-09-29T07:55:30;2.70;;;2.70;;
27802;SDS011;15182;48.174;11.562;2022-09-29T07:58:04;2.33;;;2.30;;
27802;SDS011;15182;48.174;11.562;2022-09-29T08:00:35;2.70;;;2.50;;
27802;SDS011;15182;48.174;11.562;2022-09-29T08:03:06;2.23;;;2.20;;
27802;SDS011;15182;48.174;11.562;2022-09-29T08:05:40;2.60;;;2.60;;
27802;SDS011;15182;48.174;11.562;2022-09-29T08:08:11;2.17;;;2.17;;
27802;SDS011;15182;48.174;11.562;2022-09-29T08:10:44;2.37;;;2.37;;
27802;SDS011;15182;48.174;11.562;2022-09-29T08:13:17;2.50;;;2.50;;
27802;SDS011;15182;48.174;11.562;2022-09-29T08:15:55;2.40;;;2.40;;
27802;SDS011;15182;48.174;11.562;2022-09-29T08:18:29;2.93;;;2.77;;
27802;SDS011;15182;48.174;11.562;2022-09-29T08:21:04;2.90;;;2.80;;
27802;SDS011;15182;48.174;11.562;2022-09-29T08:23:36;2.53;;;2.53;;
27802;SDS011;15182;48.174;11.562;2022-09-29T08:26:10;2.57;;;2.43;;
27802;SDS011;15182;48.174;11.562;2022-09-29T08:28:45;2.60;;;2.53;;
27802;SDS011;15182;48.174;11.562;2022-09-29T08:31:17;2.10;;;2.10;;
27802;SDS011;15182;48.174;11.562;2022-09-29T08:33:51;2.30;;;2.20;;
27802;SDS011;15182;48.174;11.562;2022-09-29T08:36:24;2.20;;;2.20;;
27802;SDS011;15182;48.174;11.562;2022-09-29T08:38:56;2.00;;;2.00;;
27802;SDS011;15182;48.174;11.562;2022-09-29T08:41:32;2.23;;;2.23;;
27802;SDS011;15182;48.174;11.562;2022-09-29T08:44:18;2.00;;;2.00;;
27802;SDS011;15182;48.174;11.562;2022-09-29T08:46:58;2.23;;;2.23;;
27802;SDS011;15182;48.174;11.562;2022-09-29T08:49:34;2.57;;;2.47;;
27802;SDS011;15182;48.174;11.562;2022-09-29T08:52:12;2.27;;;2.27;;
27802;SDS011;15182;48.174;11.562;2022-09-29T08:54:50;2.20;;;2.20;;
27802;SDS011;15182;48.174;11.562;2022-09-29T08:57:27;2.10;;;2.10;;
27802;SDS011;15182;48.174;11.562;2022-09-29T09:00:03;2.00;;;2.00;;
27802;SDS011;15182;48.174;11.562;2022-09-29T09:05:53;2.20;;;2.20;;
27802;SDS011;15182;48.174;11.562;2022-09-29T09:09:01;2.00;;;2.00;;
27802;SDS011;15182;48.174;11.562;2022-09-29T09:12:10;1.90;;;1.90;;
27802;SDS011;15182;48.174;11.562;2022-09-29T09:15:04;2.17;;;2.17;;
27802;SDS011;15182;48.174;11.562;2022-09-29T09:18:22;2.10;;;2.10;;
27802;SDS011;15182;48.174;11.562;2022-09-29T09:21:13;2.00;;;2.00;;
27802;SDS011;15182;48.174;11.562;2022-09-29T09:23:56;1.97;;;1.97;;
27802;SDS011;15182;48.174;11.562;2022-09-29T09:26:35;2.23;;;2.23;;
27802;SDS011;15182;48.174;11.562;2022-09-29T09:29:12;2.00;;;2.00;;
27802;SDS011;15182;48.174;11.562;2022-09-29T09:31:49;3.40;;;2.20;;
27802;SDS011;15182;48.174;11.562;2022-09-29T09:34:25;2.00;;;2.00;;
27802;SDS011;15182;48.174;11.562;2022-09-29T09:37:03;2.40;;;2.40;;
27802;SDS011;15182;48.174;11.562;2022-09-29T09:39:43;1.90;;;1.90;;
27802;SDS011;15182;48.174;11.562;2022-09-29T09:42:21;2.33;;;2.33;;
27802;SDS011;15182;48.174;11.562;2022-09-29T09:44:59;1.83;;;1.83;;
27802;SDS011;15182;48.174;11.562;2022-09-29T09:47:37;2.10;;;2.10;;
27802;SDS011;15182;48.174;11.562;2022-09-29T09:50:17;2.07;;;2.07;;
27802;SDS011;15182;48.174;11.562;2022-09-29T09:52:51;2.37;;;2.23;;
27802;SDS011;15182;48.174;11.562;2022-09-29T09:55:26;2.17;;;2.17;;
27802;SDS011;15182;48.174;11.562;2022-09-29T09:58:11;2.40;;;2.30;;
27802;SDS011;15182;48.174;11.562;2022-09-29T10:01:11;2.40;;;2.40;;
27802;SDS011;15182;48.174;11.562;2022-09-29T10:03:43;2.37;;;2.37;;
27802;SDS011;15182;48.174;11.562;2022-09-29T10:06:15;2.30;;;2.20;;
27802;SDS011;15182;48.174;11.562;2022-09-29T10:08:46;2.33;;;2.33;;
27802;SDS011;15182;48.174;11.562;2022-09-29T10:11:22;2.30;;;2.23;;
27802;SDS011;15182;48.174;11.562;2022-09-29T10:13:57;2.10;;;2.10;;
27802;SDS011;15182;48.174;11.562;2022-09-29T10:16:36;2.00;;;2.00;;
27802;SDS011;15182;48.174;11.562;2022-09-29T10:19:16;2.10;;;2.10;;
27802;SDS011;15182;48.174;11.562;2022-09-29T10:22:13;2.90;;;2.10;;
27802;SDS011;15182;48.174;11.562;2022-09-29T10:24:47;2.00;;;2.00;;
27802;SDS011;15182;48.174;11.562;2022-09-29T10:27:23;2.07;;;2.07;;
27802;SDS011;15182;48.174;11.562;2022-09-29T10:29:55;2.33;;;2.30;;
27802;SDS011;15182;48.174;11.562;2022-09-29T10:32:28;2.40;;;2.30;;
27802;SDS011;15182;48.174;11.562;2022-09-29T10:35:07;1.90;;;1.90;;
27802;SDS011;15182;48.174;11.562;2022-09-29T10:37:51;2.00;;;2.00;;
27802;SDS011;15182;48.174;11.562;2022-09-29T10:40:31;5.83;;;2.30;;
27802;SDS011;15182;48.174;11.562;2022-09-29T10:43:15;2.13;;;2.13;;
27802;SDS011;15182;48.174;11.562;2022-09-29T10:45:51;2.00;;;2.00;;
27802;SDS011;15182;48.174;11.562;2022-09-29T10:48:26;1.67;;;1.67;;
27802;SDS011;15182;48.174;11.562;2022-09-29T10:50:59;2.43;;;2.27;;
27802;SDS011;15182;48.174;11.562;2022-09-29T10:53:40;2.07;;;2.07;;
27802;SDS011;15182;48.174;11.562;2022-09-29T10:56:16;2.07;;;2.07;;
27802;SDS011;15182;48.174;11.562;2022-09-29T10:58:53;2.30;;;2.20;;
27802;SDS011;15182;48.174;11.562;2022-09-29T11:01:27;2.20;;;2.00;;
27802;SDS011;15182;48.174;11.562;2022-09-29T11:04:14;1.83;;;1.73;;
27802;SDS011;15182;48.174;11.562;2022-09-29T11:06:50;2.10;;;2.00;;
27802;SDS011;15182;48.174;11.562;2022-09-29T11:09:29;2.20;;;2.20;;
27802;SDS011;15182;48.174;11.562;2022-09-29T11:12:03;2.03;;;2.03;;
27802;SDS011;15182;48.174;11.562;2022-09-29T11:14:51;2.10;;;2.10;;
27802;SDS011;15182;48.174;11.562;2022-09-29T11:17:24;2.10;;;2.10;;
27802;SDS011;15182;48.174;11.562;2022-09-29T11:19:58;2.40;;;2.40;;
27802;SDS011;15182;48.174;11.562;2022-09-29T11:25:48;2.00;;;2.00;;
27802;SDS011;15182;48.174;11.562;2022-09-29T11:28:48;1.90;;;1.90;;
27802;SDS011;15182;48.174;11.562;2022-09-29T11:31:35;2.33;;;2.33;;
27802;SDS011;15182;48.174;11.562;2022-09-29T11:34:23;2.00;;;2.00;;
27802;SDS011;15182;48.174;11.562;2022-09-29T11:37:13;2.00;;;2.00;;
27802;SDS011;15182;48.174;11.562;2022-09-29T11:39:51;2.20;;;2.20;;
27802;SDS011;15182;48.174;11.562;2022-09-29T11:42:41;2.47;;;2.40;;
27802;SDS011;15182;48.174;11.562;2022-09-29T11:45:31;2.43;;;2.33;;
27802;SDS011;15182;48.174;11.562;2022-09-29T11:48:34;2.23;;;2.13;;
27802;SDS011;15182;48.174;11.562;2022-09-29T11:51:23;2.30;;;2.30;;
27802;SDS011;15182;48.174;11.562;2022-09-29T11:54:21;2.20;;;2.10;;
27802;SDS011;15182;48.174;11.562;2022-09-29T11:57:31;2.73;;;2.53;;
27802;SDS011;15182;48.174;11.562;2022-09-29T12:00:13;2.17;;;2.17;;
27802;SDS011;15182;48.174;11.562;2022-09-29T12:03:10;2.50;;;2.50;;
27802;SDS011;15182;48.174;11.562;2022-09-29T12:06:10;2.50;;;2.50;;
27802;SDS011;15182;48.174;11.562;2022-09-29T12:09:22;2.37;;;2.37;;
27802;SDS011;15182;48.174;11.562;2022-09-29T12:12:23;2.70;;;2.60;;
27802;SDS011;15182;48.174;11.562;2022-09-29T12:15:15;3.20;;;3.00;;
27802;SDS011;15182;48.174;11.562;2022-09-29T12:17:58;2.60;;;2.60;;
27802;SDS011;15182;48.174;11.562;2022-09-29T12:20:41;2.57;;;2.57;;
27802;SDS011;15182;48.174;11.562;2022-09-29T12:23:18;2.77;;;2.67;;
27802;SDS011;15182;48.174;11.562;2022-09-29T12:25:59;2.60;;;2.60;;
27802;SDS011;15182;48.174;11.562;2022-09-29T12:28:38;2.90;;;2.80;;
27802;SDS011;15182;48.174;11.562;2022-09-29T12:31:15;2.50;;;2.50;;
27802;SDS011;15182;48.174;11.562;2022-09-29T12:33:51;2.50;;;2.50;;
27802;SDS011;15182;48.174;11.562;2022-09-29T12:36:32;2.63;;;2.60;;
27802;SDS011;15182;48.174;11.562;2022-09-29T12:39:19;2.43;;;2.33;;
27802;SDS011;15182;48.174;11.562;2022-09-29T12:42:01;2.50;;;2.50;;
27802;SDS011;15182;48.174;11.562;2022-09-29T12:44:41;3.23;;;3.03;;
27802;SDS011;15182;48.174;11.562;2022-09-29T12:47:21;2.80;;;2.70;;
27802;SDS011;15182;48.174;11.562;2022-09-29T12:50:01;2.50;;;2.50;;
27802;SDS011;15182;48.174;11.562;2022-09-29T12:52:39;2.70;;;2.50;;
27802;SDS011;15182;48.174;11.562;2022-09-29T12:55:18;2.70;;;2.60;;
27802;SDS011;15182;48.174;11.562;2022-09-29T12:57:57;2.60;;;2.50;;
27802;SDS011;15182;48.174;11.562;2022-09-29T13:00:32;2.50;;;2.50;;
27802;SDS011;15182;48.174;11.562;2022-09-29T13:03:28;3.47;;;3.13;;
27802;SDS011;15182;48.174;11.562;2022-09-29T13:09:25;2.53;;;2.53;;
27802;SDS011;15182;48.174;11.562;2022-09-29T13:12:16;3.07;;;2.93;;
27802;SDS011;15182;48.174;11.562;2022-09-29T13:15:12;2.87;;;2.60;;
27802;SDS011;15182;48.174;11.562;2022-09-29T13:18:25;3.07;;;3.07;;
27802;SDS011;15182;48.174;11.562;2022-09-29T13:21:36;2.57;;;2.57;;
27802;SDS011;15182;48.174;11.562;2022-09-29T13:27:20;2.30;;;2.30;;
27802;SDS011;15182;48.174;11.562;2022-09-29T13:29:56;2.70;;;2.60;;
27802;SDS011;15182;48.174;11.562;2022-09-29T13:32:37;2.37;;;2.37;;
27802;SDS011;15182;48.174;11.562;2022-09-29T13:35:12;2.40;;;2.40;;
27802;SDS011;15182;48.174;11.562;2022-09-29T13:37:48;3.20;;;3.20;;
27802;SDS011;15182;48.174;11.562;2022-09-29T13:40:22;3.93;;;3.73;;
27802;SDS011;15182;48.174;11.562;2022-09-29T13:42:56;3.43;;;3.33;;
27802;SDS011;15182;48.174;11.562;2022-09-29T13:51:21;31.50;;;16.23;;
27802;SDS011;15182;48.174;11.562;2022-09-29T13:56:50;41.77;;;19.87;;
27802;SDS011;15182;48.174;11.562;2022-09-29T13:59:26;38.67;;;21.23;;
27802;SDS011;15182;48.174;11.562;2022-09-29T14:01:58;25.77;;;15.73;;
27802;SDS011;15182;48.174;11.562;2022-09-29T14:04:49;39.97;;;25.67;;
27802;SDS011;15182;48.174;11.562;2022-09-29T14:07:36;28.77;;;17.27;;
27802;SDS011;15182;48.174;11.562;2022-09-29T14:10:20;12.17;;;10.87;;
27802;SDS011;15182;48.174;11.562;2022-09-29T14:12:58;7.87;;;7.27;;
27802;SDS011;15182;48.174;11.562;2022-09-29T14:15:34;5.47;;;5.17;;
27802;SDS011;15182;48.174;11.562;2022-09-29T14:18:13;5.57;;;5.13;;
27802;SDS011;15182;48.174;11.562;2022-09-29T14:20:58;5.53;;;5.13;;
27802;SDS011;15182;48.174;11.562;2022-09-29T14:23:48;4.20;;;4.00;;
27802;SDS011;15182;48.174;11.562;2022-09-29T14:29:13;3.97;;;3.77;;
27802;SDS011;15182;48.174;11.562;2022-09-29T14:31:49;3.37;;;3.37;;
27802;SDS011;15182;48.174;11.562;2022-09-29T14:34:23;3.27;;;3.07;;
27802;SDS011;15182;48.174;11.562;2022-09-29T14:36:59;24.27;;;14.13;;
27802;SDS011;15182;48.174;11.562;2022-09-29T14:39:31;7.97;;;7.17;;
27802;SDS011;15182;48.174;11.562;2022-09-29T14:42:27;5.10;;;4.80;;
27802;SDS011;15182;48.174;11.562;2022-09-29T14:44:59;3.90;;;3.80;;
27802;SDS011;15182;48.174;11.562;2022-09-29T14:47:52;3.90;;;3.40;;
27802;SDS011;15182;48.174;11.562;2022-09-29T14:50:48;3.40;;;3.30;;
27802;SDS011;15182;48.174;11.562;2022-09-29T14:53:53;3.40;;;3.30;;
27802;SDS011;15182;48.174;11.562;2022-09-29T14:56:38;3.37;;;3.27;;
27802;SDS011;15182;48.174;11.562;2022-09-29T14:59:18;3.30;;;3.23;;
27802;SDS011;15182;48.174;11.562;2022-09-29T15:02:06;5.00;;;3.30;;
27802;SDS011;15182;48.174;11.562;2022-09-29T15:04:48;4.07;;;3.97;;
27802;SDS011;15182;48.174;11.562;2022-09-29T15:07:20;3.23;;;3.13;;
27802;SDS011;15182;48.174;11.562;2022-09-29T15:09:54;3.43;;;3.23;;
27802;SDS011;15182;48.174;11.562;2022-09-29T15:12:28;4.13;;;4.03;;
27802;SDS011;15182;48.174;11.562;2022-09-29T15:15:01;4.23;;;4.03;;
27802;SDS011;15182;48.174;11.562;2022-09-29T15:17:53;3.63;;;3.53;;
27802;SDS011;15182;48.174;11.562;2022-09-29T15:20:41;3.33;;;3.23;;
27802;SDS011;15182;48.174;11.562;2022-09-29T15:26:24;3.20;;;3.20;;
27802;SDS011;15182;48.174;11.562;2022-09-29T15:28:58;3.10;;;3.00;;
27802;SDS011;15182;48.174;11.562;2022-09-29T15:31:32;3.07;;;2.97;;
27802;SDS011;15182;48.174;11.562;2022-09-29T15:34:04;3.37;;;3.17;;
27802;SDS011;15182;48.174;11.562;2022-09-29T15:36:44;3.40;;;3.30;;
27802;SDS011;15182;48.174;11.562;2022-09-29T15:39:39;3.60;;;3.40;;
27802;SDS011;15182;48.174;11.562;2022-09-29T15:42:15;3.50;;;3.40;;
27802;SDS011;15182;48.174;11.562;2022-09-29T15:44:52;4.23;;;4.03;;
27802;SDS011;15182;48.174;11.562;2022-09-29T15:47:32;3.37;;;3.27;;
27802;SDS011;15182;48.174;11.562;2022-09-29T15:50:15;4.80;;;4.63;;
27802;SDS011;15182;48.174;11.562;2022-09-29T15:52:49;4.80;;;4.50;;
27802;SDS011;15182;48.174;11.562;2022-09-29T15:55:22;5.00;;;4.80;;
27802;SDS011;15182;48.174;11.562;2022-09-29T15:57:56;5.40;;;5.10;;
27802;SDS011;15182;48.174;11.562;2022-09-29T16:00:41;4.10;;;3.90;;
27802;SDS011;15182;48.174;11.562;2022-09-29T16:03:14;4.60;;;4.40;;
27802;SDS011;15182;48.174;11.562;2022-09-29T16:05:54;4.83;;;4.37;;
27802;SDS011;15182;48.174;11.562;2022-09-29T16:08:30;4.37;;;4.17;;
27802;SDS011;15182;48.174;11.562;2022-09-29T16:11:03;4.07;;;3.87;;
27802;SDS011;15182;48.174;11.562;2022-09-29T16:13:42;3.70;;;3.60;;